ESSD

Borlange Airport

Sweden
METAR ESSD 201350Z 36005KT CAVOK 15/08 Q1009
Observed Flight Rules
Aug-20 @ 13:50 UTC (14 hours ago) Visual Flight Rules
Wind Visibility Clouds
360° at 5 knots 10,000+ meters
  • Clear skies
Temperatures Readings
Current 15°C / 59°F
Dewpoint 8°C / 46°F
Humidity 63%
Altimeter 29.79" Hg
Pressure 1009 hPa
Elevation 161
METAR ESSD 201350Z 36005KT CAVOK 15/08 Q1009
Observed Flight Rules
Aug-20 @ 13:50 UTC
(14 hours ago)
VFR
Wind Visibility
360° at 5 knots 10,000+ meters
Clouds
  • Clear skies
Temperature Dewpoint
15°C / 59°F 8°C / 46°F
Humidity Altimeter Pressure
63% 29.79" Hg 1009 hPa